Time;durP1;ratioP1;P1;durP2;ratioP2;P2;SDS_P1;SDS_P2;PMS_P1;PMS_P2;Temp;Humidity;BMP_temperature;BMP_pressure;BME280_temperature;BME280_humidity;BME280_pressure;Samples;Min_cycle;Max_cycle;Signal;HPM_P1;HPM_P2
2022/11/23 00:01:09;;;;;;;;;;;1.30;99.90;;;;;;5032387;28;19997;-73
2022/11/23 00:03:35;;;;;;;;;;;1.30;99.90;;;;;;5033621;28;19992;-73
2022/11/23 00:06:01;;;;;;;;;;;1.30;99.90;;;;;;5033653;28;20342;-72
2022/11/23 00:08:26;;;;;;;;;;;1.30;99.90;;;;;;5033663;28;20403;-73
2022/11/23 00:10:52;;;;;;;;;;;1.30;99.90;;;;;;5033840;28;19914;-73
2022/11/23 00:13:17;;;;;;;;;;;1.40;99.90;;;;;;5033220;28;19910;-73
2022/11/23 00:15:43;;;;;;;;;;;1.30;99.90;;;;;;5033656;28;19916;-73
2022/11/23 00:18:08;;;;;;;;;;;1.20;99.90;;;;;;5033564;28;20397;-73
2022/11/23 00:20:34;;;;;;;;;;;1.20;99.90;;;;;;5033528;28;20289;-73
2022/11/23 00:22:59;;;;;;;;;;;1.20;99.90;;;;;;5033473;28;19920;-73
2022/11/23 00:25:25;;;;;;;;;;;1.20;99.90;;;;;;5033441;28;19917;-73
2022/11/23 00:27:50;;;;;;;;;;;1.30;99.90;;;;;;5033155;28;19909;-73
2022/11/23 00:30:16;;;;;;;;;;;1.30;99.90;;;;;;5033391;28;19932;-73
2022/11/23 00:32:41;;;;;;;;;;;1.30;99.90;;;;;;5033392;28;19924;-73
2022/11/23 00:35:07;;;;;;;;;;;1.30;99.90;;;;;;5033330;28;19919;-73
2022/11/23 00:37:33;;;;;;;;;;;1.30;99.90;;;;;;5033640;28;19936;-73
2022/11/23 00:39:58;;;;;;;;;;;1.30;99.90;;;;;;5033723;28;19963;-73
2022/11/23 00:42:24;;;;;;;;;;;1.30;99.90;;;;;;5037007;28;19920;-72
2022/11/23 00:44:49;;;;;;;;;;;1.30;99.90;;;;;;5037265;28;20012;-73
2022/11/23 00:47:15;;;;;;;;;;;1.30;99.90;;;;;;5037233;28;19941;-73
2022/11/23 00:49:40;;;;;;;;;;;1.30;99.90;;;;;;5037140;28;20285;-73
2022/11/23 00:52:06;;;;;;;;;;;1.40;99.90;;;;;;5037115;28;19913;-73
2022/11/23 00:54:31;;;;;;;;;;;1.30;99.90;;;;;;5037088;28;19909;-73
2022/11/23 00:56:57;;;;;;;;;;;1.40;99.90;;;;;;5035934;28;19920;-73
2022/11/23 00:59:22;;;;;;;;;;;1.40;99.90;;;;;;5036860;28;20377;-73
2022/11/23 01:01:48;;;;;;;;;;;1.40;99.90;;;;;;5035675;28;19913;-73
2022/11/23 01:04:14;;;;;;;;;;;1.30;99.90;;;;;;5036941;28;20003;-73
2022/11/23 01:06:39;;;;;;;;;;;1.30;99.90;;;;;;5036816;28;19968;-73
2022/11/23 01:09:07;;;;;;;;;;;1.30;99.90;;;;;;5037155;28;19921;-73
2022/11/23 01:11:33;;;;;;;;;;;1.30;99.90;;;;;;5036763;28;20369;-73
2022/11/23 01:13:59;;;;;;;;;;;1.30;99.90;;;;;;5035113;28;19916;-73
2022/11/23 01:16:26;;;;;;;;;;;1.30;99.90;;;;;;5036978;28;19909;-73
2022/11/23 01:19:02;;;;;;;;;;;1.30;99.90;;;;;;5035312;28;20435;-73
2022/11/23 01:21:29;;;;;;;;;;;1.20;99.90;;;;;;5035344;28;20361;-74
2022/11/23 01:23:55;;;;;;;;;;;1.30;99.90;;;;;;5036529;28;19920;-73
2022/11/23 01:26:21;;;;;;;;;;;1.20;99.90;;;;;;5036537;28;20287;-73
2022/11/23 01:28:46;;;;;;;;;;;1.20;99.90;;;;;;5036240;28;20400;-73
2022/11/23 01:31:13;;;;;;;;;;;1.20;99.90;;;;;;5036398;28;20008;-74
2022/11/23 01:33:39;;;;;;;;;;;1.20;99.90;;;;;;5036418;28;19909;-74
2022/11/23 01:36:12;;;;;;;;;;;1.20;99.90;;;;;;5036384;28;19920;-74
2022/11/23 01:38:38;;;;;;;;;;;1.30;99.90;;;;;;5036327;28;19941;-74
2022/11/23 01:41:04;;;;;;;;;;;1.20;99.90;;;;;;5036321;28;20288;-74
2022/11/23 01:43:30;;;;;;;;;;;1.30;99.90;;;;;;5035821;28;19958;-74
2022/11/23 01:45:56;;;;;;;;;;;1.20;99.90;;;;;;5036149;28;19921;-74
2022/11/23 01:48:25;;;;;;;;;;;1.20;99.90;;;;;;5036126;28;19913;-74
2022/11/23 01:50:51;;;;;;;;;;;1.20;99.90;;;;;;5034320;28;19916;-74
2022/11/23 01:53:18;;;;;;;;;;;1.20;99.90;;;;;;5036048;28;19913;-74
2022/11/23 01:55:45;;;;;;;;;;;1.20;99.90;;;;;;5036274;28;19971;-74
2022/11/23 01:58:11;;;;;;;;;;;1.20;99.90;;;;;;5035694;28;19916;-73
2022/11/23 02:00:37;;;;;;;;;;;1.20;99.90;;;;;;5035949;28;20376;-74
2022/11/23 02:03:03;;;;;;;;;;;1.20;99.90;;;;;;5035800;28;19916;-74
2022/11/23 02:05:43;;;;;;;;;;;1.20;99.90;;;;;;5035689;28;19917;-74
2022/11/23 02:08:09;;;;;;;;;;;1.20;99.90;;;;;;5034783;28;19909;-74
2022/11/23 02:10:35;;;;;;;;;;;1.20;99.90;;;;;;5035716;28;20012;-74
2022/11/23 02:13:03;;;;;;;;;;;1.20;99.90;;;;;;5035333;28;19960;-73
2022/11/23 02:15:28;;;;;;;;;;;1.20;99.90;;;;;;5035612;28;19955;-74
2022/11/23 02:17:54;;;;;;;;;;;1.20;99.90;;;;;;5035704;28;19917;-74
2022/11/23 02:20:19;;;;;;;;;;;1.20;99.90;;;;;;5035578;28;19999;-74
2022/11/23 02:22:54;;;;;;;;;;;1.20;99.90;;;;;;5036048;28;20372;-74
2022/11/23 02:25:38;;;;;;;;;;;1.20;99.90;;;;;;5035565;28;19913;-74
2022/11/23 02:28:04;;;;;;;;;;;1.20;99.90;;;;;;5035179;28;19916;-73
2022/11/23 02:30:31;;;;;;;;;;;1.30;99.90;;;;;;5035359;28;19913;-74
2022/11/23 02:32:56;;;;;;;;;;;1.20;99.90;;;;;;5035561;28;20432;-74
2022/11/23 02:35:22;;;;;;;;;;;1.30;99.90;;;;;;5035192;28;19913;-74
2022/11/23 02:37:48;;;;;;;;;;;1.30;99.90;;;;;;5033906;28;19991;-74
2022/11/23 02:40:19;;;;;;;;;;;1.30;99.90;;;;;;5035065;28;19910;-74
2022/11/23 02:42:46;;;;;;;;;;;1.30;99.90;;;;;;5033403;28;19921;-73
2022/11/23 02:45:21;;;;;;;;;;;1.30;99.90;;;;;;5035279;28;20281;-73
2022/11/23 02:47:48;;;;;;;;;;;1.30;99.90;;;;;;5035102;28;19913;-74
2022/11/23 02:50:14;;;;;;;;;;;1.30;99.90;;;;;;5035157;28;19936;-74
2022/11/23 02:52:40;;;;;;;;;;;1.30;99.90;;;;;;5033766;28;19909;-74
2022/11/23 02:55:07;;;;;;;;;;;1.30;99.90;;;;;;5032913;28;21626;-74
2022/11/23 02:57:33;;;;;;;;;;;1.30;99.90;;;;;;5034820;28;19910;-74
2022/11/23 02:59:58;;;;;;;;;;;1.30;99.90;;;;;;5034555;28;19967;-74
2022/11/23 03:02:24;;;;;;;;;;;1.30;99.90;;;;;;5033808;28;20285;-74
2022/11/23 03:04:49;;;;;;;;;;;1.30;99.90;;;;;;5034655;28;20303;-74
2022/11/23 03:07:15;;;;;;;;;;;1.30;99.90;;;;;;5034723;28;19913;-74
2022/11/23 03:09:40;;;;;;;;;;;1.30;99.90;;;;;;5034910;28;19917;-74
2022/11/23 03:12:06;;;;;;;;;;;1.30;99.90;;;;;;5034770;28;19917;-74
2022/11/23 03:14:32;;;;;;;;;;;1.30;99.90;;;;;;5034178;28;19952;-74
2022/11/23 03:16:58;;;;;;;;;;;1.30;99.90;;;;;;5034713;28;20012;-74
2022/11/23 03:19:23;;;;;;;;;;;1.30;99.90;;;;;;5034391;28;19909;-74
2022/11/23 03:21:49;;;;;;;;;;;1.30;99.90;;;;;;5034323;28;19914;-74
2022/11/23 03:24:16;;;;;;;;;;;1.30;99.90;;;;;;5034191;28;19909;-74
2022/11/23 03:26:42;;;;;;;;;;;1.30;99.90;;;;;;5034258;28;19920;-74
2022/11/23 03:29:07;;;;;;;;;;;1.30;99.90;;;;;;5034215;28;19920;-74
2022/11/23 03:31:33;;;;;;;;;;;1.30;99.90;;;;;;5034516;28;19913;-74
2022/11/23 03:33:58;;;;;;;;;;;1.30;99.90;;;;;;5034137;28;19910;-74
2022/11/23 03:36:24;;;;;;;;;;;1.30;99.90;;;;;;5034314;28;19913;-74
2022/11/23 03:38:50;;;;;;;;;;;1.30;99.90;;;;;;5034351;28;19967;-74
2022/11/23 03:41:15;;;;;;;;;;;1.30;99.90;;;;;;5034024;28;19913;-74
2022/11/23 03:43:41;;;;;;;;;;;1.30;99.90;;;;;;5033471;28;19983;-74
2022/11/23 03:46:06;;;;;;;;;;;1.30;99.90;;;;;;5034138;28;19921;-74
2022/11/23 03:48:32;;;;;;;;;;;1.30;99.90;;;;;;5034244;28;19917;-74
2022/11/23 03:50:57;;;;;;;;;;;1.20;99.90;;;;;;5033954;28;19913;-74
2022/11/23 03:53:23;;;;;;;;;;;1.30;99.90;;;;;;5033820;28;20396;-74
2022/11/23 03:55:48;;;;;;;;;;;1.20;99.90;;;;;;5034120;28;20353;-74
2022/11/23 03:58:14;;;;;;;;;;;1.20;99.90;;;;;;5033607;28;19920;-74
2022/11/23 04:00:39;;;;;;;;;;;1.20;99.90;;;;;;5034337;28;19917;-74
2022/11/23 04:03:05;;;;;;;;;;;1.20;99.90;;;;;;5033568;28;19936;-74
2022/11/23 04:05:31;;;;;;;;;;;1.20;99.90;;;;;;5033658;28;19924;-74
2022/11/23 04:07:56;;;;;;;;;;;1.20;99.90;;;;;;5033647;28;20352;-74
2022/11/23 04:10:22;;;;;;;;;;;1.30;99.90;;;;;;5033615;28;19913;-74
2022/11/23 04:12:51;;;;;;;;;;;1.20;99.90;;;;;;5033434;28;20424;-74
2022/11/23 04:15:17;;;;;;;;;;;1.20;99.90;;;;;;5032263;28;19913;-74
2022/11/23 04:17:43;;;;;;;;;;;1.20;99.90;;;;;;5016118;28;19913;-74
2022/11/23 04:20:08;;;;;;;;;;;1.20;99.90;;;;;;5033598;28;19963;-74
2022/11/23 04:22:34;;;;;;;;;;;1.20;99.90;;;;;;5033500;28;19964;-74
2022/11/23 04:24:59;;;;;;;;;;;1.20;99.90;;;;;;5033343;28;19913;-74
2022/11/23 04:27:25;;;;;;;;;;;1.20;99.90;;;;;;5032222;28;20009;-74
2022/11/23 04:29:51;;;;;;;;;;;1.30;99.90;;;;;;5012008;28;20350;-74
2022/11/23 04:32:16;;;;;;;;;;;1.30;99.90;;;;;;5031975;28;19914;-74
2022/11/23 04:34:42;;;;;;;;;;;1.30;99.90;;;;;;5033338;28;19914;-74
2022/11/23 04:37:07;;;;;;;;;;;1.30;99.90;;;;;;5032449;28;19913;-74
2022/11/23 04:39:33;;;;;;;;;;;1.30;99.90;;;;;;5031519;28;19909;-74
2022/11/23 04:41:58;;;;;;;;;;;1.30;99.90;;;;;;5032978;28;19915;-74
2022/11/23 04:44:24;;;;;;;;;;;1.30;99.90;;;;;;5030916;28;19917;-74
2022/11/23 04:46:49;;;;;;;;;;;1.30;99.90;;;;;;5033099;28;19917;-74
2022/11/23 04:49:15;;;;;;;;;;;1.30;99.90;;;;;;5031565;28;20297;-74
2022/11/23 04:51:41;;;;;;;;;;;1.30;99.90;;;;;;5033209;28;20369;-74
2022/11/23 04:54:06;;;;;;;;;;;1.20;99.90;;;;;;5033046;28;19921;-74
2022/11/23 04:56:32;;;;;;;;;;;1.20;99.90;;;;;;5033090;28;19943;-75
2022/11/23 04:58:58;;;;;;;;;;;1.20;99.90;;;;;;5032907;28;20373;-74
2022/11/23 05:01:23;;;;;;;;;;;1.20;99.90;;;;;;5031743;28;19920;-74
2022/11/23 05:03:49;;;;;;;;;;;1.20;99.90;;;;;;5032761;28;20013;-74
2022/11/23 05:06:14;;;;;;;;;;;1.20;99.90;;;;;;5032984;28;19917;-74
2022/11/23 05:08:41;;;;;;;;;;;1.20;99.90;;;;;;5032825;28;20039;-74
2022/11/23 05:11:06;;;;;;;;;;;1.20;99.90;;;;;;5032930;28;19920;-74
2022/11/23 05:13:32;;;;;;;;;;;1.20;99.90;;;;;;5032680;28;19914;-74
2022/11/23 05:15:57;;;;;;;;;;;1.20;99.90;;;;;;5032860;28;20006;-74
2022/11/23 05:18:23;;;;;;;;;;;1.10;99.90;;;;;;5032818;28;19939;-74
2022/11/23 05:20:48;;;;;;;;;;;1.20;99.90;;;;;;5032561;28;19921;-74
2022/11/23 05:23:14;;;;;;;;;;;1.20;99.90;;;;;;5032693;28;19913;-74
2022/11/23 05:25:39;;;;;;;;;;;1.20;99.90;;;;;;5031342;28;20377;-74
2022/11/23 05:28:05;;;;;;;;;;;1.20;99.90;;;;;;5036473;28;20004;-74
2022/11/23 05:30:30;;;;;;;;;;;1.20;99.90;;;;;;5036269;28;19938;-74
2022/11/23 05:33:03;;;;;;;;;;;1.20;99.90;;;;;;5036376;28;19962;-74
2022/11/23 05:35:28;;;;;;;;;;;1.20;99.90;;;;;;5036431;28;19913;-74
2022/11/23 05:37:54;;;;;;;;;;;1.20;99.90;;;;;;5036349;28;20284;-74
2022/11/23 05:40:20;;;;;;;;;;;1.30;99.90;;;;;;5035074;28;19913;-74
2022/11/23 05:42:45;;;;;;;;;;;1.30;99.90;;;;;;5036114;28;19961;-73
2022/11/23 05:45:11;;;;;;;;;;;1.30;99.90;;;;;;5044973;23;20063;-86
2022/11/23 05:47:36;;;;;;;;;;;1.30;99.90;;;;;;5035317;28;19917;-86
2022/11/23 05:50:02;;;;;;;;;;;1.30;99.90;;;;;;5035061;28;19913;-86
2022/11/23 05:52:28;;;;;;;;;;;1.20;99.90;;;;;;5035380;28;19928;-86
2022/11/23 05:54:53;;;;;;;;;;;1.20;99.90;;;;;;5018504;28;20013;-86
2022/11/23 05:57:21;;;;;;;;;;;1.20;99.90;;;;;;5036130;28;19913;-86
2022/11/23 05:59:47;;;;;;;;;;;1.20;99.90;;;;;;5018672;28;19920;-86
2022/11/23 06:02:12;;;;;;;;;;;1.20;99.90;;;;;;5034677;28;19909;-86
2022/11/23 06:04:38;;;;;;;;;;;1.20;99.90;;;;;;5018330;28;19914;-86
2022/11/23 06:07:04;;;;;;;;;;;1.20;99.90;;;;;;5034855;28;19983;-86
2022/11/23 06:09:29;;;;;;;;;;;1.20;99.90;;;;;;5018192;28;19920;-86
2022/11/23 06:11:55;;;;;;;;;;;1.20;99.90;;;;;;5035920;28;19909;-86
2022/11/23 06:14:21;;;;;;;;;;;1.20;99.90;;;;;;5035789;28;19920;-86
2022/11/23 06:16:46;;;;;;;;;;;1.20;99.90;;;;;;5035861;28;19909;-86
2022/11/23 06:19:12;;;;;;;;;;;1.20;99.90;;;;;;5018058;28;19921;-86
2022/11/23 06:21:37;;;;;;;;;;;1.20;99.90;;;;;;5018016;28;20047;-86
2022/11/23 06:24:03;;;;;;;;;;;1.20;99.90;;;;;;5036064;28;19963;-87
2022/11/23 06:26:29;;;;;;;;;;;1.20;99.90;;;;;;5051365;28;20384;-86
2022/11/23 06:28:54;;;;;;;;;;;1.20;99.90;;;;;;5035915;28;19920;-86
2022/11/23 06:31:20;;;;;;;;;;;1.20;99.90;;;;;;5030910;28;19918;-86
2022/11/23 06:33:45;;;;;;;;;;;1.20;99.90;;;;;;5030931;28;20003;-87
2022/11/23 06:36:11;;;;;;;;;;;1.20;99.90;;;;;;4998026;28;19956;-86
2022/11/23 06:38:37;;;;;;;;;;;1.20;99.90;;;;;;5015639;28;19914;-86
2022/11/23 06:41:02;;;;;;;;;;;1.20;99.90;;;;;;4998099;28;19914;-87
2022/11/23 06:43:28;;;;;;;;;;;1.20;99.90;;;;;;5015701;28;19910;-86
2022/11/23 06:45:54;;;;;;;;;;;1.20;99.90;;;;;;5014668;28;20012;-86
2022/11/23 06:48:20;;;;;;;;;;;1.20;99.90;;;;;;5014167;28;19918;-86
2022/11/23 06:50:45;;;;;;;;;;;1.20;99.90;;;;;;5014583;28;19921;-86
2022/11/23 06:53:11;;;;;;;;;;;1.20;99.90;;;;;;5015425;28;19910;-86
2022/11/23 06:55:37;;;;;;;;;;;1.20;99.90;;;;;;4997675;28;19913;-86
2022/11/23 06:58:03;;;;;;;;;;;1.20;99.90;;;;;;4997788;28;20389;-86
2022/11/23 07:00:29;;;;;;;;;;;1.20;99.90;;;;;;5015252;28;20401;-86
2022/11/23 07:02:54;;;;;;;;;;;1.20;99.90;;;;;;5031588;28;19909;-86
2022/11/23 07:05:20;;;;;;;;;;;1.20;99.90;;;;;;5034894;28;20263;-86
2022/11/23 07:07:46;;;;;;;;;;;1.20;99.90;;;;;;5034881;28;19990;-87
2022/11/23 07:10:12;;;;;;;;;;;1.20;99.90;;;;;;5017296;28;19917;-86
2022/11/23 07:12:38;;;;;;;;;;;1.20;99.90;;;;;;5035548;28;20335;-86
2022/11/23 07:15:04;;;;;;;;;;;1.30;99.90;;;;;;5035966;28;19956;-87
2022/11/23 07:17:29;;;;;;;;;;;1.30;99.90;;;;;;5033587;28;19952;-86
2022/11/23 07:19:55;;;;;;;;;;;1.30;99.90;;;;;;5033380;28;20258;-86
2022/11/23 07:22:20;;;;;;;;;;;1.30;99.90;;;;;;5035933;28;19983;-86
2022/11/23 07:24:46;;;;;;;;;;;1.40;99.90;;;;;;5033332;28;19913;-87
2022/11/23 07:27:11;;;;;;;;;;;1.40;99.90;;;;;;5016743;28;19953;-86
2022/11/23 07:29:37;;;;;;;;;;;1.50;99.90;;;;;;5016709;28;20419;-87
2022/11/23 07:32:03;;;;;;;;;;;1.50;99.90;;;;;;5024954;28;20368;-86
2022/11/23 07:34:28;;;;;;;;;;;1.60;99.90;;;;;;5029897;28;20373;-86
2022/11/23 07:36:54;;;;;;;;;;;1.60;99.90;;;;;;4996948;28;20432;-86
2022/11/23 07:39:19;;;;;;;;;;;1.60;99.90;;;;;;4996877;28;19920;-87
2022/11/23 07:41:47;;;;;;;;;;;1.60;99.90;;;;;;5014558;28;20305;-86
2022/11/23 07:44:13;;;;;;;;;;;1.60;99.90;;;;;;5013137;28;19917;-87
2022/11/23 07:46:39;;;;;;;;;;;1.70;99.90;;;;;;5013232;28;19925;-86
2022/11/23 07:49:04;;;;;;;;;;;1.70;99.90;;;;;;5013801;28;19910;-86
2022/11/23 07:51:30;;;;;;;;;;;1.70;99.90;;;;;;5014251;28;19913;-86
2022/11/23 07:53:56;;;;;;;;;;;1.70;99.90;;;;;;5012932;28;20270;-86
2022/11/23 07:56:22;;;;;;;;;;;1.70;99.90;;;;;;5013107;28;19913;-87
2022/11/23 07:58:47;;;;;;;;;;;1.70;99.90;;;;;;4997194;28;19936;-86
2022/11/23 08:01:14;;;;;;;;;;;1.70;99.90;;;;;;4999041;28;19914;-86
2022/11/23 08:03:39;;;;;;;;;;;1.70;99.90;;;;;;5032493;28;19909;-87
2022/11/23 08:06:08;;;;;;;;;;;1.80;99.90;;;;;;5032549;28;20004;-86
2022/11/23 08:08:34;;;;;;;;;;;1.80;99.90;;;;;;5032602;28;19968;-87
2022/11/23 08:10:59;;;;;;;;;;;1.80;99.90;;;;;;5016201;28;19914;-86
2022/11/23 08:13:25;;;;;;;;;;;1.90;99.90;;;;;;5033701;28;20395;-86
2022/11/23 08:15:50;;;;;;;;;;;1.90;99.90;;;;;;5032562;28;19917;-86
2022/11/23 08:18:16;;;;;;;;;;;2.00;99.90;;;;;;5015873;28;20389;-86
2022/11/23 08:20:41;;;;;;;;;;;2.00;99.90;;;;;;5032494;28;19917;-86
2022/11/23 08:23:07;;;;;;;;;;;2.00;99.90;;;;;;5016057;28;20293;-86
2022/11/23 08:25:32;;;;;;;;;;;2.00;99.90;;;;;;5032823;28;20369;-86
2022/11/23 08:27:59;;;;;;;;;;;2.10;99.90;;;;;;5032347;28;20354;-86
2022/11/23 08:30:25;;;;;;;;;;;2.10;99.90;;;;;;5032405;28;20316;-86
2022/11/23 08:32:51;;;;;;;;;;;2.10;99.90;;;;;;5025432;28;19913;-86
2022/11/23 08:35:16;;;;;;;;;;;2.10;99.90;;;;;;5032385;28;19909;-87
2022/11/23 08:37:42;;;;;;;;;;;2.10;99.90;;;;;;5033506;28;19963;-87
2022/11/23 08:40:08;;;;;;;;;;;2.10;99.90;;;;;;5033416;28;19963;-87
2022/11/23 08:42:33;;;;;;;;;;;2.10;99.90;;;;;;5015828;28;19913;-87
2022/11/23 08:45:01;;;;;;;;;;;2.10;99.90;;;;;;5033359;28;19929;-87
2022/11/23 08:47:27;;;;;;;;;;;2.10;99.90;;;;;;5032401;28;20289;-87
2022/11/23 08:49:52;;;;;;;;;;;2.10;99.90;;;;;;5016104;28;19913;-87
2022/11/23 08:52:18;;;;;;;;;;;2.10;99.90;;;;;;5033475;28;20434;-87
2022/11/23 08:54:44;;;;;;;;;;;2.10;99.90;;;;;;5034552;28;20393;-87
2022/11/23 08:57:09;;;;;;;;;;;2.20;99.90;;;;;;5032896;28;19967;-87
2022/11/23 08:59:35;;;;;;;;;;;2.20;99.90;;;;;;5015665;28;20373;-87
2022/11/23 09:02:00;;;;;;;;;;;2.30;99.90;;;;;;5035342;28;20278;-87
2022/11/23 09:04:29;;;;;;;;;;;2.40;99.90;;;;;;5035628;28;20317;-87
2022/11/23 09:06:55;;;;;;;;;;;2.40;99.90;;;;;;5019834;28;20396;-87
2022/11/23 09:09:21;;;;;;;;;;;2.60;99.90;;;;;;5035857;28;19917;-86
2022/11/23 09:11:47;;;;;;;;;;;2.80;99.90;;;;;;5019563;28;20373;-87
2022/11/23 09:14:12;;;;;;;;;;;2.90;99.90;;;;;;5035884;28;19983;-87
2022/11/23 09:16:38;;;;;;;;;;;3.10;99.90;;;;;;5035773;28;20408;-87
2022/11/23 09:19:06;;;;;;;;;;;3.20;99.90;;;;;;5019101;28;19917;-86
2022/11/23 09:21:34;;;;;;;;;;;3.30;99.90;;;;;;5035554;28;19916;-87
2022/11/23 09:24:00;;;;;;;;;;;3.40;99.90;;;;;;5019594;28;19913;-86
2022/11/23 09:26:25;;;;;;;;;;;3.40;99.90;;;;;;5037046;28;20016;-87
2022/11/23 09:28:51;;;;;;;;;;;3.50;99.90;;;;;;5035474;28;19913;-86
2022/11/23 09:31:17;;;;;;;;;;;3.50;99.90;;;;;;5036694;28;19913;-86
2022/11/23 09:33:42;;;;;;;;;;;3.40;99.90;;;;;;5035266;28;19959;-87
2022/11/23 09:36:08;;;;;;;;;;;3.40;99.90;;;;;;5036775;28;20420;-86
2022/11/23 09:38:34;;;;;;;;;;;3.30;99.90;;;;;;5036591;28;20346;-86
2022/11/23 09:41:08;;;;;;;;;;;3.20;99.90;;;;;;5035282;28;19916;-86
2022/11/23 09:43:38;;;;;;;;;;;3.10;99.90;;;;;;5035193;28;19920;-87
2022/11/23 09:46:10;;;;;;;;;;;3.00;99.90;;;;;;5035253;28;19913;-86
2022/11/23 09:48:36;;;;;;;;;;;2.90;99.90;;;;;;5035149;28;19909;-87
2022/11/23 09:51:18;;;;;;;;;;;2.90;99.90;;;;;;5035234;28;19959;-87
2022/11/23 09:53:47;;;;;;;;;;;2.90;99.90;;;;;;5036464;28;19909;-87
2022/11/23 09:56:21;;;;;;;;;;;2.80;99.90;;;;;;5035428;28;19909;-86
2022/11/23 09:58:50;;;;;;;;;;;2.90;99.90;;;;;;5035066;28;19909;-85
2022/11/23 10:01:16;;;;;;;;;;;2.90;99.90;;;;;;5036349;28;19909;-86
2022/11/23 10:03:43;;;;;;;;;;;3.00;99.90;;;;;;5035022;28;19921;-86
2022/11/23 10:06:17;;;;;;;;;;;3.00;99.90;;;;;;5051453;28;19959;-86
2022/11/23 10:08:44;;;;;;;;;;;3.00;99.90;;;;;;5051438;28;19952;-85
2022/11/23 10:11:29;;;;;;;;;;;2.90;99.90;;;;;;5036554;28;19917;-86
2022/11/23 10:14:01;;;;;;;;;;;2.90;99.90;;;;;;5052606;28;19909;-86
2022/11/23 10:16:31;;;;;;;;;;;3.00;99.90;;;;;;5036495;28;20344;-85
2022/11/23 10:19:22;;;;;;;;;;;3.00;99.90;;;;;;5036151;28;20293;-85
2022/11/23 10:21:48;;;;;;;;;;;3.00;99.90;;;;;;5032621;28;19909;-85
2022/11/23 10:24:13;;;;;;;;;;;2.90;99.90;;;;;;5051424;28;19978;-85
2022/11/23 10:26:40;;;;;;;;;;;2.90;99.90;;;;;;5051046;28;19962;-85
2022/11/23 10:29:18;;;;;;;;;;;2.80;99.90;;;;;;5051522;28;19909;-85
2022/11/23 10:31:45;;;;;;;;;;;2.80;99.90;;;;;;5036572;28;19909;-85
2022/11/23 10:34:12;;;;;;;;;;;2.80;99.90;;;;;;5034938;28;19916;-86
2022/11/23 10:36:39;;;;;;;;;;;2.90;99.90;;;;;;5035080;28;19909;-86
2022/11/23 10:39:11;;;;;;;;;;;2.90;99.90;;;;;;5035118;28;19913;-85
2022/11/23 10:41:36;;;;;;;;;;;2.80;99.90;;;;;;5036595;28;19909;-85
2022/11/23 10:44:08;;;;;;;;;;;2.80;99.90;;;;;;5036712;28;19990;-85
2022/11/23 10:46:34;;;;;;;;;;;2.80;99.90;;;;;;5034827;28;19913;-86
2022/11/23 10:49:16;;;;;;;;;;;2.80;99.90;;;;;;5036008;28;20377;-85
2022/11/23 10:51:51;;;;;;;;;;;2.80;99.90;;;;;;5036501;28;20262;-85
2022/11/23 10:54:24;;;;;;;;;;;2.90;99.90;;;;;;5034710;28;20337;-85
2022/11/23 10:56:51;;;;;;;;;;;2.90;99.90;;;;;;5034344;28;20090;-86
2022/11/23 10:59:25;;;;;;;;;;;2.90;99.90;;;;;;5017900;28;19914;-85
2022/11/23 11:02:02;;;;;;;;;;;3.00;99.90;;;;;;5026782;28;19913;-86
2022/11/23 11:04:27;;;;;;;;;;;3.00;99.90;;;;;;5015386;28;20356;-84
2022/11/23 11:07:08;;;;;;;;;;;3.00;99.90;;;;;;5022148;28;19918;-85
2022/11/23 11:09:34;;;;;;;;;;;2.90;99.90;;;;;;5031121;28;19909;-85
2022/11/23 11:12:00;;;;;;;;;;;2.90;99.90;;;;;;5035299;28;20004;-85
2022/11/23 11:14:26;;;;;;;;;;;2.90;99.90;;;;;;5035754;28;20439;-85
2022/11/23 11:16:53;;;;;;;;;;;2.90;99.90;;;;;;5033889;28;19914;-85
2022/11/23 11:19:29;;;;;;;;;;;2.90;99.90;;;;;;5033638;28;19909;-85
2022/11/23 11:21:56;;;;;;;;;;;2.90;99.90;;;;;;5034260;28;19913;-86
2022/11/23 11:24:51;;;;;;;;;;;2.90;99.90;;;;;;5033162;28;20384;-85
2022/11/23 11:27:19;;;;;;;;;;;2.90;99.90;;;;;;5015738;28;20008;-85
2022/11/23 11:29:53;;;;;;;;;;;2.90;99.90;;;;;;5034091;28;20365;-86
2022/11/23 11:32:25;;;;;;;;;;;2.90;99.90;;;;;;5033726;28;19909;-85
2022/11/23 11:35:11;;;;;;;;;;;2.90;99.90;;;;;;5033807;28;20389;-85
2022/11/23 11:37:36;;;;;;;;;;;2.90;99.90;;;;;;5032846;28;19924;-86
2022/11/23 11:40:02;;;;;;;;;;;3.00;99.90;;;;;;5033660;28;19909;-86
2022/11/23 11:42:41;;;;;;;;;;;3.00;99.90;;;;;;5035054;28;19909;-85
2022/11/23 11:45:14;;;;;;;;;;;3.10;99.90;;;;;;5033612;28;19921;-85
2022/11/23 11:47:46;;;;;;;;;;;3.10;99.90;;;;;;5033563;28;19913;-85
2022/11/23 11:50:33;;;;;;;;;;;3.10;99.90;;;;;;5029173;28;20266;-86
2022/11/23 11:53:01;;;;;;;;;;;3.10;99.90;;;;;;5027696;28;19935;-86
2022/11/23 11:55:50;;;;;;;;;;;3.00;99.90;;;;;;5017940;28;19910;-85
2022/11/23 11:58:16;;;;;;;;;;;3.10;99.90;;;;;;5020810;28;19909;-85
2022/11/23 12:00:42;;;;;;;;;;;3.00;99.90;;;;;;5021334;28;19913;-86
2022/11/23 12:03:08;;;;;;;;;;;3.00;99.90;;;;;;5034377;28;19910;-86
2022/11/23 12:05:33;;;;;;;;;;;3.00;99.90;;;;;;5034048;28;19914;-86
2022/11/23 12:08:02;;;;;;;;;;;3.10;99.90;;;;;;5035690;28;20019;-86
2022/11/23 12:10:46;;;;;;;;;;;3.10;99.90;;;;;;5034539;28;19980;-85
2022/11/23 12:13:16;;;;;;;;;;;3.10;99.90;;;;;;5033561;28;19956;-87
2022/11/23 12:15:45;;;;;;;;;;;3.10;99.90;;;;;;5033290;28;19916;-86
2022/11/23 12:18:16;;;;;;;;;;;3.10;99.90;;;;;;5033574;28;20008;-86
2022/11/23 12:20:54;;;;;;;;;;;3.20;99.90;;;;;;5033466;28;19909;-86
2022/11/23 12:23:43;;;;;;;;;;;3.20;99.90;;;;;;5031807;28;19956;-86
2022/11/23 12:26:27;;;;;;;;;;;3.20;99.90;;;;;;5027406;28;20420;-86
2022/11/23 12:29:08;;;;;;;;;;;3.20;99.90;;;;;;5034616;28;19979;-86
2022/11/23 12:31:39;;;;;;;;;;;3.30;99.90;;;;;;5033980;28;19920;-86
2022/11/23 12:34:11;;;;;;;;;;;3.30;99.90;;;;;;5033145;28;19963;-86
2022/11/23 12:36:43;;;;;;;;;;;3.40;99.90;;;;;;5039661;28;19917;-86
2022/11/23 12:39:20;;;;;;;;;;;3.50;99.90;;;;;;5038256;28;19996;-86
2022/11/23 12:41:58;;;;;;;;;;;3.50;99.90;;;;;;5038902;28;20266;-87
2022/11/23 12:44:32;;;;;;;;;;;3.50;99.90;;;;;;5038676;28;20011;-86
2022/11/23 12:46:58;;;;;;;;;;;3.50;99.90;;;;;;5037036;28;19920;-85
2022/11/23 12:49:26;;;;;;;;;;;3.50;99.90;;;;;;5026477;28;19935;-87
2022/11/23 12:51:58;;;;;;;;;;;3.50;99.90;;;;;;5038064;28;19917;-87
2022/11/23 12:54:23;;;;;;;;;;;3.40;99.90;;;;;;5038238;28;19909;-87
2022/11/23 12:57:03;;;;;;;;;;;3.30;99.90;;;;;;5038012;28;20027;-86
2022/11/23 12:59:37;;;;;;;;;;;3.20;99.90;;;;;;5032311;28;20384;-87
2022/11/23 13:02:07;;;;;;;;;;;3.10;99.90;;;;;;5038489;28;19909;-86
2022/11/23 13:04:44;;;;;;;;;;;3.00;99.90;;;;;;5036793;28;19971;-86
2022/11/23 13:07:09;;;;;;;;;;;3.00;99.90;;;;;;5037630;28;19944;-87
2022/11/23 13:09:40;;;;;;;;;;;2.90;99.90;;;;;;5038101;28;19909;-88
2022/11/23 13:12:24;;;;;;;;;;;2.90;99.90;;;;;;5036704;28;19909;-86
2022/11/23 13:14:53;;;;;;;;;;;3.00;99.90;;;;;;5028131;28;19918;-86
2022/11/23 13:17:21;;;;;;;;;;;3.00;99.90;;;;;;5033698;28;19909;-86
2022/11/23 13:20:02;;;;;;;;;;;2.90;99.90;;;;;;5018318;28;19910;-88
2022/11/23 13:22:29;;;;;;;;;;;3.00;99.90;;;;;;5017293;28;20004;-87
2022/11/23 13:25:00;;;;;;;;;;;2.90;99.90;;;;;;5000756;28;20289;-86
2022/11/23 13:27:25;;;;;;;;;;;2.90;99.90;;;;;;5027075;28;19920;-87
2022/11/23 13:29:51;;;;;;;;;;;2.90;99.90;;;;;;5035410;28;19909;-87
2022/11/23 13:32:35;;;;;;;;;;;2.90;99.90;;;;;;5038228;28;19932;-88
2022/11/23 13:35:00;;;;;;;;;;;2.80;99.90;;;;;;5037781;28;19996;-88
2022/11/23 13:37:26;;;;;;;;;;;2.80;99.90;;;;;;5037168;28;20471;-87
2022/11/23 13:39:59;;;;;;;;;;;2.80;99.90;;;;;;5019808;28;19949;-87
2022/11/23 13:42:25;;;;;;;;;;;2.80;99.90;;;;;;5052840;28;19909;-87
2022/11/23 13:45:10;;;;;;;;;;;2.80;99.90;;;;;;5037918;28;19925;-87
2022/11/23 13:47:35;;;;;;;;;;;2.70;99.90;;;;;;5019573;28;19920;-89
2022/11/23 13:50:08;;;;;;;;;;;2.70;99.90;;;;;;5016978;28;19913;-87
2022/11/23 13:52:35;;;;;;;;;;;2.60;99.90;;;;;;5017936;28;19909;-88
2022/11/23 13:55:16;;;;;;;;;;;2.60;99.90;;;;;;5018065;28;20443;-87
2022/11/23 13:57:43;;;;;;;;;;;2.60;99.90;;;;;;5036781;28;20320;-87
2022/11/23 14:00:27;;;;;;;;;;;2.60;99.90;;;;;;5036532;28;19913;-87
2022/11/23 14:03:13;;;;;;;;;;;2.60;99.90;;;;;;5037721;28;19955;-87
2022/11/23 14:05:47;;;;;;;;;;;2.60;99.90;;;;;;5035257;28;19940;-87
2022/11/23 14:08:14;;;;;;;;;;;2.60;99.90;;;;;;5035504;28;19963;-88
2022/11/23 14:10:40;;;;;;;;;;;2.50;99.90;;;;;;5035184;28;19909;-87
2022/11/23 14:13:23;;;;;;;;;;;2.50;99.90;;;;;;5018583;28;19921;-87
2022/11/23 14:15:54;;;;;;;;;;;2.50;99.90;;;;;;5036575;28;19963;-88
2022/11/23 14:18:24;;;;;;;;;;;2.50;99.90;;;;;;5036488;28;19909;-87
2022/11/23 14:21:00;;;;;;;;;;;2.50;99.90;;;;;;5032405;28;19959;-87
2022/11/23 14:23:32;;;;;;;;;;;2.50;99.90;;;;;;5020881;28;19916;-87
2022/11/23 14:26:18;;;;;;;;;;;2.40;99.90;;;;;;5033178;28;19913;-87
2022/11/23 14:28:43;;;;;;;;;;;2.40;99.90;;;;;;5059647;28;19956;-87
2022/11/23 14:31:12;;;;;;;;;;;2.40;99.90;;;;;;5036098;28;19909;-85
2022/11/23 14:33:52;;;;;;;;;;;2.40;99.90;;;;;;5034247;28;19916;-87
2022/11/23 14:36:18;;;;;;;;;;;2.30;99.90;;;;;;5034725;28;19973;-87